sensor_id;sensor_type;location;lat;lon;timestamp;P1;durP1;ratioP1;P2;durP2;ratioP2
24517;SDS011;12678;51.336;12.406;2023-05-29T00:00:44;10.55;;;4.35;;
24517;SDS011;12678;51.336;12.406;2023-05-29T00:03:10;9.05;;;4.57;;
24517;SDS011;12678;51.336;12.406;2023-05-29T00:05:36;12.73;;;5.53;;
24517;SDS011;12678;51.336;12.406;2023-05-29T00:08:01;9.32;;;5.38;;
24517;SDS011;12678;51.336;12.406;2023-05-29T00:10:28;12.30;;;5.43;;
24517;SDS011;12678;51.336;12.406;2023-05-29T00:12:53;12.65;;;5.45;;
24517;SDS011;12678;51.336;12.406;2023-05-29T00:15:21;9.73;;;4.75;;
24517;SDS011;12678;51.336;12.406;2023-05-29T00:17:47;9.27;;;4.88;;
24517;SDS011;12678;51.336;12.406;2023-05-29T00:20:14;11.25;;;5.20;;
24517;SDS011;12678;51.336;12.406;2023-05-29T00:22:40;9.98;;;5.55;;
24517;SDS011;12678;51.336;12.406;2023-05-29T00:25:07;11.10;;;5.75;;
24517;SDS011;12678;51.336;12.406;2023-05-29T00:27:34;9.68;;;5.13;;
24517;SDS011;12678;51.336;12.406;2023-05-29T00:30:00;10.18;;;6.15;;
24517;SDS011;12678;51.336;12.406;2023-05-29T00:32:28;12.95;;;5.10;;
24517;SDS011;12678;51.336;12.406;2023-05-29T00:34:54;10.75;;;4.85;;
24517;SDS011;12678;51.336;12.406;2023-05-29T00:37:20;8.13;;;4.18;;
24517;SDS011;12678;51.336;12.406;2023-05-29T00:39:46;12.48;;;5.53;;
24517;SDS011;12678;51.336;12.406;2023-05-29T00:42:13;8.98;;;4.93;;
24517;SDS011;12678;51.336;12.406;2023-05-29T00:44:38;14.40;;;4.82;;
24517;SDS011;12678;51.336;12.406;2023-05-29T00:47:04;10.23;;;5.03;;
24517;SDS011;12678;51.336;12.406;2023-05-29T00:49:31;11.98;;;5.22;;
24517;SDS011;12678;51.336;12.406;2023-05-29T00:51:58;7.63;;;4.18;;
24517;SDS011;12678;51.336;12.406;2023-05-29T00:54:26;7.05;;;3.95;;
24517;SDS011;12678;51.336;12.406;2023-05-29T00:56:55;7.93;;;3.85;;
24517;SDS011;12678;51.336;12.406;2023-05-29T00:59:22;6.97;;;3.58;;
24517;SDS011;12678;51.336;12.406;2023-05-29T01:01:51;8.32;;;3.70;;
24517;SDS011;12678;51.336;12.406;2023-05-29T01:04:17;8.85;;;3.85;;
24517;SDS011;12678;51.336;12.406;2023-05-29T01:06:45;9.80;;;4.07;;
24517;SDS011;12678;51.336;12.406;2023-05-29T01:09:11;8.70;;;3.90;;
24517;SDS011;12678;51.336;12.406;2023-05-29T01:14:29;8.18;;;3.15;;
24517;SDS011;12678;51.336;12.406;2023-05-29T01:17:17;6.80;;;3.17;;
24517;SDS011;12678;51.336;12.406;2023-05-29T01:22:35;6.70;;;3.55;;
24517;SDS011;12678;51.336;12.406;2023-05-29T01:25:11;6.72;;;3.05;;
24517;SDS011;12678;51.336;12.406;2023-05-29T01:27:43;5.57;;;3.17;;
24517;SDS011;12678;51.336;12.406;2023-05-29T01:30:12;8.48;;;2.67;;
24517;SDS011;12678;51.336;12.406;2023-05-29T01:32:40;5.70;;;3.13;;
24517;SDS011;12678;51.336;12.406;2023-05-29T01:35:06;8.68;;;3.05;;
24517;SDS011;12678;51.336;12.406;2023-05-29T01:37:33;5.25;;;3.00;;
24517;SDS011;12678;51.336;12.406;2023-05-29T01:39:59;4.65;;;2.80;;
24517;SDS011;12678;51.336;12.406;2023-05-29T01:42:26;5.53;;;2.92;;
24517;SDS011;12678;51.336;12.406;2023-05-29T01:44:53;7.18;;;2.78;;
24517;SDS011;12678;51.336;12.406;2023-05-29T01:47:20;4.70;;;2.13;;
24517;SDS011;12678;51.336;12.406;2023-05-29T01:49:47;5.95;;;2.75;;
24517;SDS011;12678;51.336;12.406;2023-05-29T01:52:16;6.28;;;3.50;;
24517;SDS011;12678;51.336;12.406;2023-05-29T01:54:41;5.85;;;2.92;;
24517;SDS011;12678;51.336;12.406;2023-05-29T01:57:07;5.07;;;3.00;;
24517;SDS011;12678;51.336;12.406;2023-05-29T01:59:33;4.32;;;2.70;;
24517;SDS011;12678;51.336;12.406;2023-05-29T02:02:05;5.20;;;2.50;;
24517;SDS011;12678;51.336;12.406;2023-05-29T02:04:35;4.88;;;2.90;;
24517;SDS011;12678;51.336;12.406;2023-05-29T02:07:01;10.75;;;3.80;;
24517;SDS011;12678;51.336;12.406;2023-05-29T02:09:27;6.43;;;2.50;;
24517;SDS011;12678;51.336;12.406;2023-05-29T02:11:53;5.25;;;2.72;;
24517;SDS011;12678;51.336;12.406;2023-05-29T02:14:18;7.10;;;3.22;;
24517;SDS011;12678;51.336;12.406;2023-05-29T02:16:44;4.38;;;2.40;;
24517;SDS011;12678;51.336;12.406;2023-05-29T02:19:10;8.55;;;3.17;;
24517;SDS011;12678;51.336;12.406;2023-05-29T02:21:38;5.07;;;2.70;;
24517;SDS011;12678;51.336;12.406;2023-05-29T02:24:05;5.45;;;3.03;;
24517;SDS011;12678;51.336;12.406;2023-05-29T02:26:32;8.63;;;2.70;;
24517;SDS011;12678;51.336;12.406;2023-05-29T02:28:57;4.82;;;2.78;;
24517;SDS011;12678;51.336;12.406;2023-05-29T02:31:23;7.57;;;2.72;;
24517;SDS011;12678;51.336;12.406;2023-05-29T02:33:49;5.28;;;3.15;;
24517;SDS011;12678;51.336;12.406;2023-05-29T02:36:14;6.85;;;2.70;;
24517;SDS011;12678;51.336;12.406;2023-05-29T02:38:41;5.47;;;2.50;;
24517;SDS011;12678;51.336;12.406;2023-05-29T02:41:07;14.05;;;3.80;;
24517;SDS011;12678;51.336;12.406;2023-05-29T02:43:32;4.43;;;2.80;;
24517;SDS011;12678;51.336;12.406;2023-05-29T02:45:58;5.82;;;2.83;;
24517;SDS011;12678;51.336;12.406;2023-05-29T02:48:24;5.50;;;2.92;;
24517;SDS011;12678;51.336;12.406;2023-05-29T02:50:50;6.00;;;3.55;;
24517;SDS011;12678;51.336;12.406;2023-05-29T02:53:16;5.95;;;3.50;;
24517;SDS011;12678;51.336;12.406;2023-05-29T02:55:42;5.28;;;2.75;;
24517;SDS011;12678;51.336;12.406;2023-05-29T02:58:08;5.70;;;3.30;;
24517;SDS011;12678;51.336;12.406;2023-05-29T03:00:34;6.93;;;2.95;;
24517;SDS011;12678;51.336;12.406;2023-05-29T03:02:59;7.72;;;3.42;;
24517;SDS011;12678;51.336;12.406;2023-05-29T03:05:25;6.35;;;3.47;;
24517;SDS011;12678;51.336;12.406;2023-05-29T03:07:51;4.63;;;2.70;;
24517;SDS011;12678;51.336;12.406;2023-05-29T03:10:17;7.82;;;3.50;;
24517;SDS011;12678;51.336;12.406;2023-05-29T03:12:43;6.95;;;3.10;;
24517;SDS011;12678;51.336;12.406;2023-05-29T03:15:10;8.18;;;3.28;;
24517;SDS011;12678;51.336;12.406;2023-05-29T03:17:35;7.03;;;3.17;;
24517;SDS011;12678;51.336;12.406;2023-05-29T03:20:03;5.63;;;3.60;;
24517;SDS011;12678;51.336;12.406;2023-05-29T03:22:33;10.45;;;3.35;;
24517;SDS011;12678;51.336;12.406;2023-05-29T03:25:00;5.47;;;2.67;;
24517;SDS011;12678;51.336;12.406;2023-05-29T03:27:27;6.25;;;3.58;;
24517;SDS011;12678;51.336;12.406;2023-05-29T03:29:54;4.50;;;3.05;;
24517;SDS011;12678;51.336;12.406;2023-05-29T03:32:20;8.43;;;3.60;;
24517;SDS011;12678;51.336;12.406;2023-05-29T03:34:45;7.20;;;3.05;;
24517;SDS011;12678;51.336;12.406;2023-05-29T03:37:12;5.97;;;3.25;;
24517;SDS011;12678;51.336;12.406;2023-05-29T03:39:38;6.75;;;2.90;;
24517;SDS011;12678;51.336;12.406;2023-05-29T03:42:04;6.78;;;3.63;;
24517;SDS011;12678;51.336;12.406;2023-05-29T03:44:30;6.22;;;2.95;;
24517;SDS011;12678;51.336;12.406;2023-05-29T03:46:55;11.02;;;3.47;;
24517;SDS011;12678;51.336;12.406;2023-05-29T03:49:21;8.18;;;3.30;;
24517;SDS011;12678;51.336;12.406;2023-05-29T03:51:47;5.43;;;3.25;;
24517;SDS011;12678;51.336;12.406;2023-05-29T03:54:12;6.70;;;3.42;;
24517;SDS011;12678;51.336;12.406;2023-05-29T03:56:39;12.07;;;3.10;;
24517;SDS011;12678;51.336;12.406;2023-05-29T03:59:04;6.85;;;3.47;;
24517;SDS011;12678;51.336;12.406;2023-05-29T04:01:30;7.53;;;3.20;;
24517;SDS011;12678;51.336;12.406;2023-05-29T04:03:55;6.28;;;2.97;;
24517;SDS011;12678;51.336;12.406;2023-05-29T04:06:21;9.95;;;3.47;;
24517;SDS011;12678;51.336;12.406;2023-05-29T04:08:47;11.38;;;3.60;;
24517;SDS011;12678;51.336;12.406;2023-05-29T04:11:13;4.97;;;3.25;;
24517;SDS011;12678;51.336;12.406;2023-05-29T04:13:39;6.70;;;3.22;;
24517;SDS011;12678;51.336;12.406;2023-05-29T04:16:05;7.28;;;3.13;;
24517;SDS011;12678;51.336;12.406;2023-05-29T04:18:31;5.95;;;2.95;;
24517;SDS011;12678;51.336;12.406;2023-05-29T04:20:57;4.32;;;2.80;;
24517;SDS011;12678;51.336;12.406;2023-05-29T04:23:23;6.22;;;3.42;;
24517;SDS011;12678;51.336;12.406;2023-05-29T04:25:48;8.13;;;4.10;;
24517;SDS011;12678;51.336;12.406;2023-05-29T04:28:17;8.10;;;3.22;;
24517;SDS011;12678;51.336;12.406;2023-05-29T04:30:46;7.25;;;2.97;;
24517;SDS011;12678;51.336;12.406;2023-05-29T04:33:12;8.65;;;3.28;;
24517;SDS011;12678;51.336;12.406;2023-05-29T04:35:40;8.27;;;3.03;;
24517;SDS011;12678;51.336;12.406;2023-05-29T04:38:08;6.63;;;3.55;;
24517;SDS011;12678;51.336;12.406;2023-05-29T04:40:34;7.00;;;2.97;;
24517;SDS011;12678;51.336;12.406;2023-05-29T04:43:01;5.93;;;3.30;;
24517;SDS011;12678;51.336;12.406;2023-05-29T04:45:27;5.93;;;2.88;;
24517;SDS011;12678;51.336;12.406;2023-05-29T04:47:53;5.30;;;2.80;;
24517;SDS011;12678;51.336;12.406;2023-05-29T04:50:20;8.40;;;3.42;;
24517;SDS011;12678;51.336;12.406;2023-05-29T04:52:48;6.68;;;2.78;;
24517;SDS011;12678;51.336;12.406;2023-05-29T04:55:13;7.20;;;3.53;;
24517;SDS011;12678;51.336;12.406;2023-05-29T04:57:39;5.50;;;3.13;;
24517;SDS011;12678;51.336;12.406;2023-05-29T05:00:05;10.38;;;3.40;;
24517;SDS011;12678;51.336;12.406;2023-05-29T05:02:33;17.10;;;3.97;;
24517;SDS011;12678;51.336;12.406;2023-05-29T05:04:59;4.82;;;3.05;;
24517;SDS011;12678;51.336;12.406;2023-05-29T05:07:25;7.35;;;2.45;;
24517;SDS011;12678;51.336;12.406;2023-05-29T05:09:50;10.02;;;3.65;;
24517;SDS011;12678;51.336;12.406;2023-05-29T05:12:16;4.85;;;2.88;;
24517;SDS011;12678;51.336;12.406;2023-05-29T05:14:42;6.05;;;3.00;;
24517;SDS011;12678;51.336;12.406;2023-05-29T05:17:07;7.10;;;2.95;;
24517;SDS011;12678;51.336;12.406;2023-05-29T05:19:33;7.68;;;3.10;;
24517;SDS011;12678;51.336;12.406;2023-05-29T05:21:59;5.15;;;2.70;;
24517;SDS011;12678;51.336;12.406;2023-05-29T05:24:25;5.40;;;3.03;;
24517;SDS011;12678;51.336;12.406;2023-05-29T05:26:50;7.10;;;3.53;;
24517;SDS011;12678;51.336;12.406;2023-05-29T05:29:16;8.40;;;2.92;;
24517;SDS011;12678;51.336;12.406;2023-05-29T05:31:42;7.70;;;3.55;;
24517;SDS011;12678;51.336;12.406;2023-05-29T05:34:07;6.50;;;2.90;;
24517;SDS011;12678;51.336;12.406;2023-05-29T05:36:33;8.38;;;3.08;;
24517;SDS011;12678;51.336;12.406;2023-05-29T05:38:58;6.75;;;3.05;;
24517;SDS011;12678;51.336;12.406;2023-05-29T05:41:24;9.27;;;2.85;;
24517;SDS011;12678;51.336;12.406;2023-05-29T05:43:50;6.93;;;3.15;;
24517;SDS011;12678;51.336;12.406;2023-05-29T05:46:15;6.20;;;3.40;;
24517;SDS011;12678;51.336;12.406;2023-05-29T05:48:42;4.47;;;2.47;;
24517;SDS011;12678;51.336;12.406;2023-05-29T05:51:08;7.28;;;3.53;;
24517;SDS011;12678;51.336;12.406;2023-05-29T05:53:34;6.30;;;3.33;;
24517;SDS011;12678;51.336;12.406;2023-05-29T05:55:59;6.60;;;2.88;;
24517;SDS011;12678;51.336;12.406;2023-05-29T05:58:25;6.88;;;2.90;;
24517;SDS011;12678;51.336;12.406;2023-05-29T06:00:51;10.65;;;3.20;;
24517;SDS011;12678;51.336;12.406;2023-05-29T06:03:17;5.80;;;3.05;;
24517;SDS011;12678;51.336;12.406;2023-05-29T06:05:43;12.00;;;3.47;;
24517;SDS011;12678;51.336;12.406;2023-05-29T06:08:08;6.72;;;3.03;;
24517;SDS011;12678;51.336;12.406;2023-05-29T06:10:34;5.88;;;3.03;;
24517;SDS011;12678;51.336;12.406;2023-05-29T06:13:01;9.57;;;3.15;;
24517;SDS011;12678;51.336;12.406;2023-05-29T06:15:26;8.77;;;3.20;;
24517;SDS011;12678;51.336;12.406;2023-05-29T06:17:52;9.00;;;3.10;;
24517;SDS011;12678;51.336;12.406;2023-05-29T06:20:20;8.35;;;3.17;;
24517;SDS011;12678;51.336;12.406;2023-05-29T06:22:46;7.18;;;2.97;;
24517;SDS011;12678;51.336;12.406;2023-05-29T06:25:15;9.50;;;3.63;;
24517;SDS011;12678;51.336;12.406;2023-05-29T06:27:41;10.15;;;3.55;;
24517;SDS011;12678;51.336;12.406;2023-05-29T06:30:07;6.93;;;3.20;;
24517;SDS011;12678;51.336;12.406;2023-05-29T06:32:33;5.32;;;3.05;;
24517;SDS011;12678;51.336;12.406;2023-05-29T06:34:59;13.05;;;3.90;;
24517;SDS011;12678;51.336;12.406;2023-05-29T06:37:25;10.30;;;3.25;;
24517;SDS011;12678;51.336;12.406;2023-05-29T06:39:50;11.48;;;3.65;;
24517;SDS011;12678;51.336;12.406;2023-05-29T06:42:16;13.10;;;3.58;;
24517;SDS011;12678;51.336;12.406;2023-05-29T06:44:41;9.68;;;3.50;;
24517;SDS011;12678;51.336;12.406;2023-05-29T06:47:07;8.07;;;3.40;;
24517;SDS011;12678;51.336;12.406;2023-05-29T06:49:32;7.30;;;3.17;;
24517;SDS011;12678;51.336;12.406;2023-05-29T06:51:59;10.35;;;3.60;;
24517;SDS011;12678;51.336;12.406;2023-05-29T06:54:25;9.35;;;3.80;;
24517;SDS011;12678;51.336;12.406;2023-05-29T06:56:50;7.63;;;3.08;;
24517;SDS011;12678;51.336;12.406;2023-05-29T06:59:16;10.05;;;3.13;;
24517;SDS011;12678;51.336;12.406;2023-05-29T07:01:41;6.20;;;3.13;;
24517;SDS011;12678;51.336;12.406;2023-05-29T07:04:07;6.97;;;3.00;;
24517;SDS011;12678;51.336;12.406;2023-05-29T07:06:33;5.95;;;3.25;;
24517;SDS011;12678;51.336;12.406;2023-05-29T07:08:59;6.18;;;3.28;;
24517;SDS011;12678;51.336;12.406;2023-05-29T07:11:25;8.45;;;3.47;;
24517;SDS011;12678;51.336;12.406;2023-05-29T07:13:51;4.53;;;2.92;;
24517;SDS011;12678;51.336;12.406;2023-05-29T07:16:18;4.63;;;2.53;;
24517;SDS011;12678;51.336;12.406;2023-05-29T07:18:43;5.55;;;2.65;;
24517;SDS011;12678;51.336;12.406;2023-05-29T07:21:09;6.20;;;3.08;;
24517;SDS011;12678;51.336;12.406;2023-05-29T07:23:35;10.45;;;3.45;;
24517;SDS011;12678;51.336;12.406;2023-05-29T07:26:01;7.25;;;3.38;;
24517;SDS011;12678;51.336;12.406;2023-05-29T07:28:27;8.07;;;3.28;;
24517;SDS011;12678;51.336;12.406;2023-05-29T07:30:52;6.93;;;2.95;;
24517;SDS011;12678;51.336;12.406;2023-05-29T07:33:18;8.27;;;3.08;;
24517;SDS011;12678;51.336;12.406;2023-05-29T07:35:44;7.50;;;3.25;;
24517;SDS011;12678;51.336;12.406;2023-05-29T07:38:10;9.60;;;2.92;;
24517;SDS011;12678;51.336;12.406;2023-05-29T07:40:35;6.60;;;2.95;;
24517;SDS011;12678;51.336;12.406;2023-05-29T07:43:01;7.30;;;3.30;;
24517;SDS011;12678;51.336;12.406;2023-05-29T07:45:27;4.63;;;2.65;;
24517;SDS011;12678;51.336;12.406;2023-05-29T07:47:52;6.03;;;3.08;;
24517;SDS011;12678;51.336;12.406;2023-05-29T07:50:18;5.45;;;2.83;;
24517;SDS011;12678;51.336;12.406;2023-05-29T07:52:44;6.75;;;3.03;;
24517;SDS011;12678;51.336;12.406;2023-05-29T07:55:10;4.78;;;2.45;;
24517;SDS011;12678;51.336;12.406;2023-05-29T07:57:36;8.02;;;3.00;;
24517;SDS011;12678;51.336;12.406;2023-05-29T08:00:02;5.85;;;2.72;;
24517;SDS011;12678;51.336;12.406;2023-05-29T08:02:33;8.07;;;2.80;;
24517;SDS011;12678;51.336;12.406;2023-05-29T08:05:03;8.40;;;3.25;;
24517;SDS011;12678;51.336;12.406;2023-05-29T08:07:29;6.78;;;2.75;;
24517;SDS011;12678;51.336;12.406;2023-05-29T08:09:55;3.92;;;2.30;;
24517;SDS011;12678;51.336;12.406;2023-05-29T08:12:21;6.95;;;2.63;;
24517;SDS011;12678;51.336;12.406;2023-05-29T08:14:46;5.32;;;2.95;;
24517;SDS011;12678;51.336;12.406;2023-05-29T08:17:12;5.32;;;2.33;;
24517;SDS011;12678;51.336;12.406;2023-05-29T08:19:38;7.40;;;3.40;;
24517;SDS011;12678;51.336;12.406;2023-05-29T08:22:05;7.78;;;2.60;;
24517;SDS011;12678;51.336;12.406;2023-05-29T08:24:31;5.15;;;2.50;;
24517;SDS011;12678;51.336;12.406;2023-05-29T08:26:57;5.45;;;3.30;;
24517;SDS011;12678;51.336;12.406;2023-05-29T08:29:23;5.75;;;2.70;;
24517;SDS011;12678;51.336;12.406;2023-05-29T08:31:48;7.45;;;3.05;;
24517;SDS011;12678;51.336;12.406;2023-05-29T08:34:14;5.07;;;2.80;;
24517;SDS011;12678;51.336;12.406;2023-05-29T08:36:40;4.65;;;2.60;;
24517;SDS011;12678;51.336;12.406;2023-05-29T08:39:06;8.23;;;2.42;;
24517;SDS011;12678;51.336;12.406;2023-05-29T08:41:38;3.55;;;2.30;;
24517;SDS011;12678;51.336;12.406;2023-05-29T08:44:14;5.10;;;2.67;;
24517;SDS011;12678;51.336;12.406;2023-05-29T08:46:44;7.07;;;2.63;;
24517;SDS011;12678;51.336;12.406;2023-05-29T08:49:11;7.60;;;2.92;;
24517;SDS011;12678;51.336;12.406;2023-05-29T08:51:41;7.78;;;2.72;;
24517;SDS011;12678;51.336;12.406;2023-05-29T08:54:10;4.80;;;2.35;;
24517;SDS011;12678;51.336;12.406;2023-05-29T08:56:39;4.57;;;2.08;;
24517;SDS011;12678;51.336;12.406;2023-05-29T08:59:05;4.55;;;2.13;;
24517;SDS011;12678;51.336;12.406;2023-05-29T09:01:33;5.47;;;2.30;;
24517;SDS011;12678;51.336;12.406;2023-05-29T09:04:00;4.75;;;2.55;;
24517;SDS011;12678;51.336;12.406;2023-05-29T09:06:26;8.40;;;2.25;;
24517;SDS011;12678;51.336;12.406;2023-05-29T09:08:52;5.30;;;2.63;;
24517;SDS011;12678;51.336;12.406;2023-05-29T09:11:19;10.05;;;2.72;;
24517;SDS011;12678;51.336;12.406;2023-05-29T09:13:46;6.65;;;2.53;;
24517;SDS011;12678;51.336;12.406;2023-05-29T09:16:11;5.07;;;2.72;;
24517;SDS011;12678;51.336;12.406;2023-05-29T09:18:37;6.70;;;2.83;;
24517;SDS011;12678;51.336;12.406;2023-05-29T09:21:06;8.60;;;3.80;;
24517;SDS011;12678;51.336;12.406;2023-05-29T09:23:33;6.28;;;2.30;;
24517;SDS011;12678;51.336;12.406;2023-05-29T09:26:01;4.63;;;2.28;;
24517;SDS011;12678;51.336;12.406;2023-05-29T09:28:27;9.48;;;3.47;;
24517;SDS011;12678;51.336;12.406;2023-05-29T09:30:56;6.90;;;2.33;;
24517;SDS011;12678;51.336;12.406;2023-05-29T09:33:22;6.63;;;2.20;;
24517;SDS011;12678;51.336;12.406;2023-05-29T09:35:50;4.78;;;2.53;;
24517;SDS011;12678;51.336;12.406;2023-05-29T09:38:16;4.13;;;2.40;;
24517;SDS011;12678;51.336;12.406;2023-05-29T09:40:44;5.63;;;2.13;;
24517;SDS011;12678;51.336;12.406;2023-05-29T09:45:40;5.78;;;2.90;;
24517;SDS011;12678;51.336;12.406;2023-05-29T09:48:07;3.47;;;2.00;;
24517;SDS011;12678;51.336;12.406;2023-05-29T09:50:36;5.82;;;2.45;;
24517;SDS011;12678;51.336;12.406;2023-05-29T09:53:02;5.10;;;2.20;;
24517;SDS011;12678;51.336;12.406;2023-05-29T09:55:28;3.00;;;2.35;;
24517;SDS011;12678;51.336;12.406;2023-05-29T09:57:57;9.90;;;2.47;;
24517;SDS011;12678;51.336;12.406;2023-05-29T10:00:23;5.80;;;2.53;;
24517;SDS011;12678;51.336;12.406;2023-05-29T10:02:49;5.38;;;2.47;;
24517;SDS011;12678;51.336;12.406;2023-05-29T10:05:15;5.63;;;2.40;;
24517;SDS011;12678;51.336;12.406;2023-05-29T10:07:46;10.52;;;2.83;;
24517;SDS011;12678;51.336;12.406;2023-05-29T10:10:16;4.15;;;2.40;;
24517;SDS011;12678;51.336;12.406;2023-05-29T10:12:50;5.07;;;2.65;;
24517;SDS011;12678;51.336;12.406;2023-05-29T10:15:16;6.50;;;2.33;;
24517;SDS011;12678;51.336;12.406;2023-05-29T10:17:57;5.50;;;2.47;;
24517;SDS011;12678;51.336;12.406;2023-05-29T10:20:27;6.47;;;2.22;;
24517;SDS011;12678;51.336;12.406;2023-05-29T10:22:53;5.82;;;2.38;;
24517;SDS011;12678;51.336;12.406;2023-05-29T10:25:22;2.78;;;2.17;;
24517;SDS011;12678;51.336;12.406;2023-05-29T10:27:49;7.78;;;2.28;;
24517;SDS011;12678;51.336;12.406;2023-05-29T10:30:25;5.97;;;2.65;;
24517;SDS011;12678;51.336;12.406;2023-05-29T10:38:46;4.00;;;2.58;;
24517;SDS011;12678;51.336;12.406;2023-05-29T10:43:54;2.85;;;2.03;;
24517;SDS011;12678;51.336;12.406;2023-05-29T10:46:20;6.40;;;2.50;;
24517;SDS011;12678;51.336;12.406;2023-05-29T10:48:49;5.85;;;2.45;;
24517;SDS011;12678;51.336;12.406;2023-05-29T10:51:24;6.15;;;2.15;;
24517;SDS011;12678;51.336;12.406;2023-05-29T10:53:56;5.18;;;2.10;;
24517;SDS011;12678;51.336;12.406;2023-05-29T10:56:22;4.13;;;2.10;;
24517;SDS011;12678;51.336;12.406;2023-05-29T10:58:53;4.18;;;2.30;;
24517;SDS011;12678;51.336;12.406;2023-05-29T11:01:23;4.00;;;1.98;;
24517;SDS011;12678;51.336;12.406;2023-05-29T11:03:53;5.18;;;1.92;;
24517;SDS011;12678;51.336;12.406;2023-05-29T11:06:42;3.30;;;2.40;;
24517;SDS011;12678;51.336;12.406;2023-05-29T11:09:25;6.35;;;2.55;;
24517;SDS011;12678;51.336;12.406;2023-05-29T11:12:12;3.25;;;2.22;;
24517;SDS011;12678;51.336;12.406;2023-05-29T11:14:44;3.92;;;2.30;;
24517;SDS011;12678;51.336;12.406;2023-05-29T11:17:30;6.75;;;2.70;;
24517;SDS011;12678;51.336;12.406;2023-05-29T11:25:04;6.07;;;2.45;;
24517;SDS011;12678;51.336;12.406;2023-05-29T11:27:30;4.10;;;2.50;;
24517;SDS011;12678;51.336;12.406;2023-05-29T11:29:57;3.85;;;2.55;;
24517;SDS011;12678;51.336;12.406;2023-05-29T11:32:23;3.88;;;2.33;;
24517;SDS011;12678;51.336;12.406;2023-05-29T11:34:52;5.15;;;1.98;;
24517;SDS011;12678;51.336;12.406;2023-05-29T11:37:21;5.72;;;2.05;;
24517;SDS011;12678;51.336;12.406;2023-05-29T11:39:48;6.00;;;2.67;;
24517;SDS011;12678;51.336;12.406;2023-05-29T11:42:14;5.97;;;2.20;;
24517;SDS011;12678;51.336;12.406;2023-05-29T11:44:40;4.93;;;2.25;;
24517;SDS011;12678;51.336;12.406;2023-05-29T11:47:06;9.68;;;2.20;;
24517;SDS011;12678;51.336;12.406;2023-05-29T11:49:34;3.45;;;2.00;;
24517;SDS011;12678;51.336;12.406;2023-05-29T11:52:10;6.57;;;2.70;;
24517;SDS011;12678;51.336;12.406;2023-05-29T11:54:37;4.43;;;2.10;;
24517;SDS011;12678;51.336;12.406;2023-05-29T11:57:03;5.60;;;3.42;;
24517;SDS011;12678;51.336;12.406;2023-05-29T11:59:32;5.35;;;2.70;;
24517;SDS011;12678;51.336;12.406;2023-05-29T12:01:58;3.00;;;1.95;;
24517;SDS011;12678;51.336;12.406;2023-05-29T12:04:28;7.60;;;2.35;;
24517;SDS011;12678;51.336;12.406;2023-05-29T12:06:54;7.47;;;2.90;;
24517;SDS011;12678;51.336;12.406;2023-05-29T12:09:25;3.92;;;2.13;;
24517;SDS011;12678;51.336;12.406;2023-05-29T12:11:52;7.70;;;4.22;;
24517;SDS011;12678;51.336;12.406;2023-05-29T12:14:18;7.50;;;3.05;;
24517;SDS011;12678;51.336;12.406;2023-05-29T12:16:44;2.55;;;2.05;;
24517;SDS011;12678;51.336;12.406;2023-05-29T12:19:10;6.32;;;2.47;;
24517;SDS011;12678;51.336;12.406;2023-05-29T12:21:36;5.93;;;2.10;;
24517;SDS011;12678;51.336;12.406;2023-05-29T12:24:07;5.07;;;2.35;;
24517;SDS011;12678;51.336;12.406;2023-05-29T12:26:33;4.47;;;2.20;;
24517;SDS011;12678;51.336;12.406;2023-05-29T12:29:02;9.23;;;2.50;;
24517;SDS011;12678;51.336;12.406;2023-05-29T12:31:31;5.18;;;2.42;;
24517;SDS011;12678;51.336;12.406;2023-05-29T12:34:02;3.75;;;2.22;;
24517;SDS011;12678;51.336;12.406;2023-05-29T12:36:33;3.15;;;2.15;;
24517;SDS011;12678;51.336;12.406;2023-05-29T12:38:59;4.00;;;2.20;;
24517;SDS011;12678;51.336;12.406;2023-05-29T12:41:34;6.07;;;2.42;;
24517;SDS011;12678;51.336;12.406;2023-05-29T12:44:02;4.03;;;2.45;;
24517;SDS011;12678;51.336;12.406;2023-05-29T12:46:35;3.70;;;2.08;;
24517;SDS011;12678;51.336;12.406;2023-05-29T12:49:17;3.47;;;1.90;;
24517;SDS011;12678;51.336;12.406;2023-05-29T12:51:48;6.75;;;2.13;;
24517;SDS011;12678;51.336;12.406;2023-05-29T12:54:14;4.55;;;2.33;;
24517;SDS011;12678;51.336;12.406;2023-05-29T12:56:41;3.15;;;1.98;;
24517;SDS011;12678;51.336;12.406;2023-05-29T12:59:07;6.35;;;2.42;;
24517;SDS011;12678;51.336;12.406;2023-05-29T13:01:34;3.95;;;2.28;;
24517;SDS011;12678;51.336;12.406;2023-05-29T13:04:04;5.60;;;3.25;;
24517;SDS011;12678;51.336;12.406;2023-05-29T13:06:32;4.25;;;2.33;;
24517;SDS011;12678;51.336;12.406;2023-05-29T13:08:58;4.78;;;2.67;;
24517;SDS011;12678;51.336;12.406;2023-05-29T13:11:24;4.70;;;2.38;;
24517;SDS011;12678;51.336;12.406;2023-05-29T13:13:50;3.35;;;2.05;;
24517;SDS011;12678;51.336;12.406;2023-05-29T13:16:16;4.90;;;2.35;;
24517;SDS011;12678;51.336;12.406;2023-05-29T13:18:42;5.50;;;2.63;;
24517;SDS011;12678;51.336;12.406;2023-05-29T13:21:08;5.32;;;2.70;;
24517;SDS011;12678;51.336;12.406;2023-05-29T13:23:35;3.50;;;1.95;;
24517;SDS011;12678;51.336;12.406;2023-05-29T13:26:00;5.97;;;2.30;;
24517;SDS011;12678;51.336;12.406;2023-05-29T13:28:26;2.47;;;1.88;;
24517;SDS011;12678;51.336;12.406;2023-05-29T13:30:52;3.72;;;2.50;;
24517;SDS011;12678;51.336;12.406;2023-05-29T13:33:18;3.10;;;1.95;;
24517;SDS011;12678;51.336;12.406;2023-05-29T13:35:43;2.92;;;2.08;;
24517;SDS011;12678;51.336;12.406;2023-05-29T13:38:09;3.78;;;2.35;;
24517;SDS011;12678;51.336;12.406;2023-05-29T13:40:35;6.70;;;2.40;;
24517;SDS011;12678;51.336;12.406;2023-05-29T13:43:00;4.80;;;2.33;;
24517;SDS011;12678;51.336;12.406;2023-05-29T13:45:26;4.72;;;2.25;;
24517;SDS011;12678;51.336;12.406;2023-05-29T13:47:53;5.95;;;2.33;;
24517;SDS011;12678;51.336;12.406;2023-05-29T13:50:20;11.23;;;2.28;;
24517;SDS011;12678;51.336;12.406;2023-05-29T13:52:47;4.28;;;2.45;;
24517;SDS011;12678;51.336;12.406;2023-05-29T13:55:12;3.78;;;2.70;;
24517;SDS011;12678;51.336;12.406;2023-05-29T13:57:38;7.32;;;2.53;;
24517;SDS011;12678;51.336;12.406;2023-05-29T14:00:05;6.13;;;2.30;;
24517;SDS011;12678;51.336;12.406;2023-05-29T14:02:31;4.43;;;2.53;;
24517;SDS011;12678;51.336;12.406;2023-05-29T14:04:57;4.43;;;2.40;;
24517;SDS011;12678;51.336;12.406;2023-05-29T14:07:23;4.03;;;2.30;;
24517;SDS011;12678;51.336;12.406;2023-05-29T14:09:49;5.50;;;2.42;;
24517;SDS011;12678;51.336;12.406;2023-05-29T14:12:15;3.90;;;1.85;;
24517;SDS011;12678;51.336;12.406;2023-05-29T14:14:41;8.35;;;2.33;;
24517;SDS011;12678;51.336;12.406;2023-05-29T14:17:06;6.72;;;2.50;;
24517;SDS011;12678;51.336;12.406;2023-05-29T14:19:33;4.30;;;2.40;;
24517;SDS011;12678;51.336;12.406;2023-05-29T14:22:00;5.18;;;2.35;;
24517;SDS011;12678;51.336;12.406;2023-05-29T14:24:26;5.57;;;2.17;;
24517;SDS011;12678;51.336;12.406;2023-05-29T14:26:52;4.93;;;2.42;;
24517;SDS011;12678;51.336;12.406;2023-05-29T14:29:17;8.23;;;2.50;;
24517;SDS011;12678;51.336;12.406;2023-05-29T14:31:43;3.63;;;2.10;;
24517;SDS011;12678;51.336;12.406;2023-05-29T14:34:09;2.08;;;1.65;;
24517;SDS011;12678;51.336;12.406;2023-05-29T14:36:36;6.60;;;2.90;;
24517;SDS011;12678;51.336;12.406;2023-05-29T14:39:02;5.22;;;2.33;;
24517;SDS011;12678;51.336;12.406;2023-05-29T14:41:29;6.57;;;1.98;;
24517;SDS011;12678;51.336;12.406;2023-05-29T14:43:55;14.05;;;2.63;;
24517;SDS011;12678;51.336;12.406;2023-05-29T14:46:23;9.38;;;2.72;;
24517;SDS011;12678;51.336;12.406;2023-05-29T14:48:50;5.35;;;2.08;;
24517;SDS011;12678;51.336;12.406;2023-05-29T14:51:16;4.90;;;2.65;;
24517;SDS011;12678;51.336;12.406;2023-05-29T14:53:43;5.97;;;2.22;;